sensor_id;sensor_type;location;lat;lon;timestamp;pressure;altitude;pressure_sealevel;temperature;humidity
11710;BME280;5911;51.036;6.972;2023-05-19T00:00:19;101667.25;;;14.30;75.92
11710;BME280;5911;51.036;6.972;2023-05-19T00:02:49;101653.25;;;14.28;76.05
11710;BME280;5911;51.036;6.972;2023-05-19T00:05:18;101660.72;;;14.23;75.57
11710;BME280;5911;51.036;6.972;2023-05-19T00:07:46;101667.00;;;14.22;77.12
11710;BME280;5911;51.036;6.972;2023-05-19T00:10:17;101659.31;;;14.19;76.75
11710;BME280;5911;51.036;6.972;2023-05-19T00:12:46;101657.88;;;14.15;77.64
11710;BME280;5911;51.036;6.972;2023-05-19T00:15:15;101667.03;;;14.11;76.66
11710;BME280;5911;51.036;6.972;2023-05-19T00:17:43;101665.34;;;14.09;76.78
11710;BME280;5911;51.036;6.972;2023-05-19T00:20:13;101648.47;;;13.99;77.63
11710;BME280;5911;51.036;6.972;2023-05-19T00:22:41;101635.22;;;13.88;77.60
11710;BME280;5911;51.036;6.972;2023-05-19T00:25:09;101650.41;;;13.97;78.82
11710;BME280;5911;51.036;6.972;2023-05-19T00:27:37;101658.84;;;14.02;77.85
11710;BME280;5911;51.036;6.972;2023-05-19T00:30:07;101654.25;;;13.93;78.99
11710;BME280;5911;51.036;6.972;2023-05-19T00:32:35;101602.66;;;13.64;79.67
11710;BME280;5911;51.036;6.972;2023-05-19T00:35:04;101655.34;;;13.91;79.22
11710;BME280;5911;51.036;6.972;2023-05-19T00:37:33;101658.84;;;13.91;79.69
11710;BME280;5911;51.036;6.972;2023-05-19T00:40:01;101643.44;;;13.74;79.59
11710;BME280;5911;51.036;6.972;2023-05-19T00:42:31;101592.81;;;13.44;79.43
11710;BME280;5911;51.036;6.972;2023-05-19T00:44:59;101660.53;;;13.81;79.85
11710;BME280;5911;51.036;6.972;2023-05-19T00:47:27;101643.06;;;13.67;81.29
11710;BME280;5911;51.036;6.972;2023-05-19T00:49:55;101663.66;;;13.75;81.03
11710;BME280;5911;51.036;6.972;2023-05-19T00:52:23;101654.50;;;13.68;81.30
11710;BME280;5911;51.036;6.972;2023-05-19T00:54:54;101651.72;;;13.69;80.87
11710;BME280;5911;51.036;6.972;2023-05-19T00:57:22;101665.09;;;13.68;81.09
11710;BME280;5911;51.036;6.972;2023-05-19T00:59:51;101665.22;;;13.66;81.77
11710;BME280;5911;51.036;6.972;2023-05-19T01:02:19;101654.13;;;13.61;81.89
11710;BME280;5911;51.036;6.972;2023-05-19T01:04:49;101660.03;;;13.65;82.44
11710;BME280;5911;51.036;6.972;2023-05-19T01:07:19;101657.50;;;13.63;81.86
11710;BME280;5911;51.036;6.972;2023-05-19T01:09:47;101664.16;;;13.58;81.36
11710;BME280;5911;51.036;6.972;2023-05-19T01:12:17;101666.28;;;13.53;81.52
11710;BME280;5911;51.036;6.972;2023-05-19T01:14:45;101659.06;;;13.55;81.89
11710;BME280;5911;51.036;6.972;2023-05-19T01:17:20;101649.44;;;13.54;82.09
11710;BME280;5911;51.036;6.972;2023-05-19T01:19:56;101640.00;;;13.38;81.99
11710;BME280;5911;51.036;6.972;2023-05-19T01:22:41;101650.38;;;13.42;82.37
11710;BME280;5911;51.036;6.972;2023-05-19T01:25:35;101652.19;;;13.41;82.93
11710;BME280;5911;51.036;6.972;2023-05-19T01:31:23;101645.88;;;13.31;83.72
11710;BME280;5911;51.036;6.972;2023-05-19T01:33:53;101642.16;;;13.33;83.63
11710;BME280;5911;51.036;6.972;2023-05-19T01:36:22;101631.31;;;13.25;83.46
11710;BME280;5911;51.036;6.972;2023-05-19T01:38:51;101643.84;;;13.23;82.46
11710;BME280;5911;51.036;6.972;2023-05-19T01:41:21;101616.56;;;13.10;82.54
11710;BME280;5911;51.036;6.972;2023-05-19T01:43:50;101642.38;;;13.19;83.48
11710;BME280;5911;51.036;6.972;2023-05-19T01:46:22;101640.47;;;13.21;83.47
11710;BME280;5911;51.036;6.972;2023-05-19T01:48:51;101634.75;;;13.15;83.45
11710;BME280;5911;51.036;6.972;2023-05-19T01:51:19;101638.03;;;13.18;83.84
11710;BME280;5911;51.036;6.972;2023-05-19T01:53:47;101642.59;;;13.16;83.84
11710;BME280;5911;51.036;6.972;2023-05-19T01:56:19;101639.19;;;13.14;83.55
11710;BME280;5911;51.036;6.972;2023-05-19T01:59:02;101640.19;;;13.13;83.47
11710;BME280;5911;51.036;6.972;2023-05-19T02:01:41;101648.34;;;13.10;84.34
11710;BME280;5911;51.036;6.972;2023-05-19T02:04:18;101644.97;;;13.08;84.86
11710;BME280;5911;51.036;6.972;2023-05-19T02:06:55;101656.00;;;13.02;84.03
11710;BME280;5911;51.036;6.972;2023-05-19T02:09:36;101658.09;;;13.10;85.05
11710;BME280;5911;51.036;6.972;2023-05-19T02:12:10;101656.63;;;13.06;84.99
11710;BME280;5911;51.036;6.972;2023-05-19T02:14:49;101640.81;;;12.93;85.00
11710;BME280;5911;51.036;6.972;2023-05-19T02:17:19;101651.56;;;13.02;85.85
11710;BME280;5911;51.036;6.972;2023-05-19T02:19:47;101645.91;;;12.96;85.41
11710;BME280;5911;51.036;6.972;2023-05-19T02:22:15;101645.63;;;12.99;86.09
11710;BME280;5911;51.036;6.972;2023-05-19T02:24:43;101651.19;;;12.96;85.19
11710;BME280;5911;51.036;6.972;2023-05-19T02:27:13;101653.09;;;12.94;85.52
11710;BME280;5911;51.036;6.972;2023-05-19T02:29:41;101650.16;;;12.86;85.91
11710;BME280;5911;51.036;6.972;2023-05-19T02:32:09;101651.63;;;12.90;85.63
11710;BME280;5911;51.036;6.972;2023-05-19T02:34:40;101641.50;;;12.84;85.61
11710;BME280;5911;51.036;6.972;2023-05-19T02:37:11;101649.84;;;12.90;85.37
11710;BME280;5911;51.036;6.972;2023-05-19T02:39:40;101629.91;;;12.74;85.14
11710;BME280;5911;51.036;6.972;2023-05-19T02:42:08;101642.72;;;12.80;85.46
11710;BME280;5911;51.036;6.972;2023-05-19T02:44:36;101643.44;;;12.82;85.59
11710;BME280;5911;51.036;6.972;2023-05-19T02:47:04;101647.25;;;12.78;86.12
11710;BME280;5911;51.036;6.972;2023-05-19T02:49:31;101608.91;;;12.59;86.49
11710;BME280;5911;51.036;6.972;2023-05-19T02:52:03;101640.16;;;12.78;85.57
11710;BME280;5911;51.036;6.972;2023-05-19T02:54:33;101634.59;;;12.70;85.98
11710;BME280;5911;51.036;6.972;2023-05-19T02:57:01;101625.56;;;12.73;85.95
11710;BME280;5911;51.036;6.972;2023-05-19T02:59:29;101627.47;;;12.71;85.88
11710;BME280;5911;51.036;6.972;2023-05-19T03:01:58;101633.50;;;12.73;86.20
11710;BME280;5911;51.036;6.972;2023-05-19T03:04:27;101622.56;;;12.66;85.83
11710;BME280;5911;51.036;6.972;2023-05-19T03:06:55;101633.25;;;12.64;85.02
11710;BME280;5911;51.036;6.972;2023-05-19T03:09:24;101627.22;;;12.62;85.96
11710;BME280;5911;51.036;6.972;2023-05-19T03:11:52;101616.63;;;12.62;86.38
11710;BME280;5911;51.036;6.972;2023-05-19T03:14:20;101624.06;;;12.57;85.74
11710;BME280;5911;51.036;6.972;2023-05-19T03:16:49;101627.88;;;12.53;86.09
11710;BME280;5911;51.036;6.972;2023-05-19T03:19:18;101618.84;;;12.45;86.81
11710;BME280;5911;51.036;6.972;2023-05-19T03:21:46;101629.09;;;12.49;86.98
11710;BME280;5911;51.036;6.972;2023-05-19T03:24:15;101630.25;;;12.45;86.40
11710;BME280;5911;51.036;6.972;2023-05-19T03:26:44;101629.09;;;12.49;86.33
11710;BME280;5911;51.036;6.972;2023-05-19T03:29:13;101621.16;;;12.49;87.28
11710;BME280;5911;51.036;6.972;2023-05-19T03:31:42;101632.81;;;12.47;87.34
11710;BME280;5911;51.036;6.972;2023-05-19T03:34:10;101625.06;;;12.44;87.30
11710;BME280;5911;51.036;6.972;2023-05-19T03:36:38;101630.25;;;12.45;86.80
11710;BME280;5911;51.036;6.972;2023-05-19T03:39:11;101626.78;;;12.45;86.28
11710;BME280;5911;51.036;6.972;2023-05-19T03:41:39;101629.00;;;12.38;86.97
11710;BME280;5911;51.036;6.972;2023-05-19T03:44:08;101616.97;;;12.34;87.72
11710;BME280;5911;51.036;6.972;2023-05-19T03:46:36;101619.63;;;12.34;86.87
11710;BME280;5911;51.036;6.972;2023-05-19T03:49:27;101619.50;;;12.36;86.59
11710;BME280;5911;51.036;6.972;2023-05-19T03:52:27;101617.81;;;12.35;88.17
11710;BME280;5911;51.036;6.972;2023-05-19T03:55:07;101621.31;;;12.35;87.95
11710;BME280;5911;51.036;6.972;2023-05-19T03:57:35;101617.94;;;12.33;87.73
11710;BME280;5911;51.036;6.972;2023-05-19T04:00:06;101618.66;;;12.35;88.54
11710;BME280;5911;51.036;6.972;2023-05-19T04:02:37;101619.72;;;12.32;88.96
11710;BME280;5911;51.036;6.972;2023-05-19T04:05:07;101615.50;;;12.30;88.34
11710;BME280;5911;51.036;6.972;2023-05-19T04:07:36;101596.72;;;12.22;88.26
11710;BME280;5911;51.036;6.972;2023-05-19T04:10:04;101618.56;;;12.37;88.11
11710;BME280;5911;51.036;6.972;2023-05-19T04:12:33;101622.88;;;12.38;88.20
11710;BME280;5911;51.036;6.972;2023-05-19T04:15:01;101617.72;;;12.36;87.55
11710;BME280;5911;51.036;6.972;2023-05-19T04:17:30;101611.47;;;12.37;87.95
11710;BME280;5911;51.036;6.972;2023-05-19T04:19:58;101621.22;;;12.37;88.99
11710;BME280;5911;51.036;6.972;2023-05-19T04:22:27;101620.38;;;12.36;89.50
11710;BME280;5911;51.036;6.972;2023-05-19T04:24:55;101625.66;;;12.36;89.44
11710;BME280;5911;51.036;6.972;2023-05-19T04:27:23;101619.41;;;12.37;89.63
11710;BME280;5911;51.036;6.972;2023-05-19T04:29:53;101619.94;;;12.29;91.16
11710;BME280;5911;51.036;6.972;2023-05-19T04:32:21;101622.06;;;12.37;91.39
11710;BME280;5911;51.036;6.972;2023-05-19T04:34:52;101593.81;;;12.25;91.06
11710;BME280;5911;51.036;6.972;2023-05-19T04:37:26;101618.19;;;12.41;91.99
11710;BME280;5911;51.036;6.972;2023-05-19T04:39:56;101614.81;;;12.39;91.81
11710;BME280;5911;51.036;6.972;2023-05-19T04:42:25;101617.34;;;12.41;92.94
11710;BME280;5911;51.036;6.972;2023-05-19T04:44:58;101624.97;;;12.45;93.31
11710;BME280;5911;51.036;6.972;2023-05-19T04:47:28;101624.97;;;12.45;94.48
11710;BME280;5911;51.036;6.972;2023-05-19T04:49:57;101607.97;;;12.37;94.92
11710;BME280;5911;51.036;6.972;2023-05-19T04:52:26;101623.78;;;12.49;95.32
11710;BME280;5911;51.036;6.972;2023-05-19T04:54:54;101617.13;;;12.44;96.17
11710;BME280;5911;51.036;6.972;2023-05-19T04:57:23;101634.88;;;12.54;96.92
11710;BME280;5911;51.036;6.972;2023-05-19T04:59:52;101624.06;;;12.57;97.38
11710;BME280;5911;51.036;6.972;2023-05-19T05:02:30;101632.53;;;12.62;98.04
11710;BME280;5911;51.036;6.972;2023-05-19T05:05:01;101604.31;;;12.50;99.22
11710;BME280;5911;51.036;6.972;2023-05-19T05:07:30;101641.78;;;12.68;98.09
11710;BME280;5911;51.036;6.972;2023-05-19T05:09:59;101638.81;;;12.73;98.69
11710;BME280;5911;51.036;6.972;2023-05-19T05:12:28;101619.78;;;12.67;98.35
11710;BME280;5911;51.036;6.972;2023-05-19T05:14:57;101639.00;;;12.82;99.49
11710;BME280;5911;51.036;6.972;2023-05-19T05:17:26;101634.06;;;12.89;99.45
11710;BME280;5911;51.036;6.972;2023-05-19T05:19:56;101622.84;;;12.85;99.90
11710;BME280;5911;51.036;6.972;2023-05-19T05:22:26;101636.88;;;12.98;100.00
11710;BME280;5911;51.036;6.972;2023-05-19T05:24:54;101639.53;;;12.98;100.00
11710;BME280;5911;51.036;6.972;2023-05-19T05:27:23;101636.63;;;13.01;99.60
11710;BME280;5911;51.036;6.972;2023-05-19T05:29:53;101649.66;;;13.04;99.93
11710;BME280;5911;51.036;6.972;2023-05-19T05:32:25;101638.94;;;13.06;100.00
11710;BME280;5911;51.036;6.972;2023-05-19T05:34:54;101643.06;;;13.10;100.00
11710;BME280;5911;51.036;6.972;2023-05-19T05:37:23;101640.41;;;13.10;98.97
11710;BME280;5911;51.036;6.972;2023-05-19T05:39:53;101641.75;;;13.16;100.00
11710;BME280;5911;51.036;6.972;2023-05-19T05:42:21;101639.00;;;13.17;100.00
11710;BME280;5911;51.036;6.972;2023-05-19T05:44:49;101635.38;;;13.18;100.00
11710;BME280;5911;51.036;6.972;2023-05-19T05:47:17;101633.34;;;13.22;100.00
11710;BME280;5911;51.036;6.972;2023-05-19T05:49:46;101636.84;;;13.22;100.00
11710;BME280;5911;51.036;6.972;2023-05-19T05:52:17;101628.91;;;13.22;100.00
11710;BME280;5911;51.036;6.972;2023-05-19T05:54:48;101629.34;;;13.16;97.35
11710;BME280;5911;51.036;6.972;2023-05-19T05:57:19;101620.22;;;13.20;95.17
11710;BME280;5911;51.036;6.972;2023-05-19T05:59:48;101626.75;;;13.27;96.33
11710;BME280;5911;51.036;6.972;2023-05-19T06:02:16;101636.13;;;13.31;96.96
11710;BME280;5911;51.036;6.972;2023-05-19T06:04:44;101623.72;;;13.21;98.21
11710;BME280;5911;51.036;6.972;2023-05-19T06:07:12;101634.44;;;13.30;99.61
11710;BME280;5911;51.036;6.972;2023-05-19T06:09:43;101620.72;;;13.25;98.78
11710;BME280;5911;51.036;6.972;2023-05-19T06:12:13;101636.63;;;13.36;99.00
11710;BME280;5911;51.036;6.972;2023-05-19T06:14:47;101635.66;;;13.37;97.17
11710;BME280;5911;51.036;6.972;2023-05-19T06:17:33;101637.97;;;13.42;96.90
11710;BME280;5911;51.036;6.972;2023-05-19T06:20:05;101613.63;;;13.37;92.73
11710;BME280;5911;51.036;6.972;2023-05-19T06:22:34;101623.03;;;13.52;93.76
11710;BME280;5911;51.036;6.972;2023-05-19T06:25:03;101599.06;;;13.43;96.60
11710;BME280;5911;51.036;6.972;2023-05-19T06:27:32;101623.66;;;13.56;97.69
11710;BME280;5911;51.036;6.972;2023-05-19T06:30:03;101621.47;;;13.61;99.24
11710;BME280;5911;51.036;6.972;2023-05-19T06:32:37;101621.22;;;13.64;98.40
11710;BME280;5911;51.036;6.972;2023-05-19T06:35:07;101621.97;;;13.66;99.94
11710;BME280;5911;51.036;6.972;2023-05-19T06:37:35;101596.06;;;13.58;97.33
11710;BME280;5911;51.036;6.972;2023-05-19T06:40:03;101613.53;;;13.72;97.15
11710;BME280;5911;51.036;6.972;2023-05-19T06:42:32;101616.53;;;13.79;96.15
11710;BME280;5911;51.036;6.972;2023-05-19T06:45:14;101616.28;;;13.82;91.10
11710;BME280;5911;51.036;6.972;2023-05-19T06:47:42;101591.09;;;13.76;88.86
11710;BME280;5911;51.036;6.972;2023-05-19T06:50:10;101619.16;;;14.01;91.97
11710;BME280;5911;51.036;6.972;2023-05-19T06:52:40;101606.16;;;13.98;85.34
11710;BME280;5911;51.036;6.972;2023-05-19T06:55:09;101612.50;;;14.06;88.94
11710;BME280;5911;51.036;6.972;2023-05-19T06:57:38;101610.47;;;14.10;92.09
11710;BME280;5911;51.036;6.972;2023-05-19T07:00:07;101588.66;;;13.95;92.77
11710;BME280;5911;51.036;6.972;2023-05-19T07:02:43;101619.03;;;14.14;91.22
11710;BME280;5911;51.036;6.972;2023-05-19T07:05:12;101611.91;;;14.14;90.53
11710;BME280;5911;51.036;6.972;2023-05-19T07:07:45;101610.59;;;14.20;86.58
11710;BME280;5911;51.036;6.972;2023-05-19T07:10:17;101616.09;;;14.28;82.59
11710;BME280;5911;51.036;6.972;2023-05-19T07:12:48;101620.66;;;14.37;83.01
11710;BME280;5911;51.036;6.972;2023-05-19T07:15:20;101609.91;;;14.38;82.32
11710;BME280;5911;51.036;6.972;2023-05-19T07:17:49;101612.22;;;14.43;80.24
11710;BME280;5911;51.036;6.972;2023-05-19T07:20:17;101611.97;;;14.46;75.13
11710;BME280;5911;51.036;6.972;2023-05-19T07:22:45;101603.06;;;14.47;78.78
11710;BME280;5911;51.036;6.972;2023-05-19T07:25:16;101599.56;;;14.47;76.19
11710;BME280;5911;51.036;6.972;2023-05-19T07:27:46;101614.34;;;14.60;76.15
11710;BME280;5911;51.036;6.972;2023-05-19T07:30:14;101617.47;;;14.65;74.51
11710;BME280;5911;51.036;6.972;2023-05-19T07:32:42;101617.91;;;14.70;74.38
11710;BME280;5911;51.036;6.972;2023-05-19T07:35:11;101615.97;;;14.72;73.17
11710;BME280;5911;51.036;6.972;2023-05-19T07:37:44;101629.72;;;14.77;70.18
11710;BME280;5911;51.036;6.972;2023-05-19T07:40:12;101619.94;;;14.78;75.32
11710;BME280;5911;51.036;6.972;2023-05-19T07:42:40;101614.63;;;14.78;75.15
11710;BME280;5911;51.036;6.972;2023-05-19T07:45:09;101621.22;;;14.84;71.40
11710;BME280;5911;51.036;6.972;2023-05-19T07:47:37;101620.47;;;14.93;70.93
11710;BME280;5911;51.036;6.972;2023-05-19T07:50:06;101617.56;;;14.96;73.15
11710;BME280;5911;51.036;6.972;2023-05-19T07:52:36;101609.31;;;14.99;68.87
11710;BME280;5911;51.036;6.972;2023-05-19T07:55:05;101614.38;;;15.02;68.82
11710;BME280;5911;51.036;6.972;2023-05-19T07:57:33;101612.81;;;14.99;69.45
11710;BME280;5911;51.036;6.972;2023-05-19T08:00:01;101601.09;;;15.02;70.76
11710;BME280;5911;51.036;6.972;2023-05-19T08:02:37;101606.41;;;15.02;69.26
11710;BME280;5911;51.036;6.972;2023-05-19T08:05:06;101595.53;;;15.05;66.04
11710;BME280;5911;51.036;6.972;2023-05-19T08:07:37;101595.28;;;15.08;68.60
11710;BME280;5911;51.036;6.972;2023-05-19T08:10:09;101589.97;;;15.08;66.31
11710;BME280;5911;51.036;6.972;2023-05-19T08:12:45;101589.69;;;15.11;68.33
11710;BME280;5911;51.036;6.972;2023-05-19T08:15:13;101581.53;;;15.03;67.18
11710;BME280;5911;51.036;6.972;2023-05-19T08:17:44;101585.22;;;15.11;69.02
11710;BME280;5911;51.036;6.972;2023-05-19T08:20:14;101593.63;;;15.17;64.71
11710;BME280;5911;51.036;6.972;2023-05-19T08:22:42;101577.69;;;15.17;66.00
11710;BME280;5911;51.036;6.972;2023-05-19T08:25:11;101585.44;;;15.29;67.33
11710;BME280;5911;51.036;6.972;2023-05-19T08:27:39;101588.09;;;15.29;66.38
11710;BME280;5911;51.036;6.972;2023-05-19T08:30:08;101577.31;;;15.21;64.72
11710;BME280;5911;51.036;6.972;2023-05-19T08:32:36;101583.25;;;15.34;65.55
11710;BME280;5911;51.036;6.972;2023-05-19T08:35:05;101583.69;;;15.39;64.67
11710;BME280;5911;51.036;6.972;2023-05-19T08:37:33;101574.47;;;15.43;63.03
11710;BME280;5911;51.036;6.972;2023-05-19T08:40:02;101569.16;;;15.43;64.10
11710;BME280;5911;51.036;6.972;2023-05-19T08:42:33;101567.91;;;15.47;64.02
11710;BME280;5911;51.036;6.972;2023-05-19T08:45:01;101566.69;;;15.52;64.19
11710;BME280;5911;51.036;6.972;2023-05-19T08:47:30;101552.94;;;15.46;61.12
11710;BME280;5911;51.036;6.972;2023-05-19T08:50:03;101568.88;;;15.67;60.52
11710;BME280;5911;51.036;6.972;2023-05-19T08:52:40;101567.34;;;15.74;62.54
11710;BME280;5911;51.036;6.972;2023-05-19T08:55:24;101564.53;;;15.76;61.41
11710;BME280;5911;51.036;6.972;2023-05-19T08:57:58;101557.31;;;15.88;61.83
11710;BME280;5911;51.036;6.972;2023-05-19T09:00:28;101555.66;;;15.96;60.96
11710;BME280;5911;51.036;6.972;2023-05-19T09:02:58;101544.16;;;16.05;60.96
11710;BME280;5911;51.036;6.972;2023-05-19T09:05:31;101555.13;;;16.22;62.85
11710;BME280;5911;51.036;6.972;2023-05-19T09:08:00;101549.50;;;16.25;62.52
11710;BME280;5911;51.036;6.972;2023-05-19T09:10:28;101549.94;;;16.30;60.76
11710;BME280;5911;51.036;6.972;2023-05-19T09:12:57;101550.94;;;16.29;58.51
11710;BME280;5911;51.036;6.972;2023-05-19T09:15:26;101527.09;;;16.27;59.66
11710;BME280;5911;51.036;6.972;2023-05-19T09:18:05;101533.56;;;16.44;59.08
11710;BME280;5911;51.036;6.972;2023-05-19T09:20:36;101545.88;;;16.45;59.36
11710;BME280;5911;51.036;6.972;2023-05-19T09:23:04;101537.47;;;16.40;58.75
11710;BME280;5911;51.036;6.972;2023-05-19T09:25:33;101539.84;;;16.43;58.93
11710;BME280;5911;51.036;6.972;2023-05-19T09:28:02;101538.59;;;16.47;57.98
11710;BME280;5911;51.036;6.972;2023-05-19T09:30:32;101538.59;;;16.57;58.49
11710;BME280;5911;51.036;6.972;2023-05-19T09:32:59;101541.56;;;16.63;57.67
11710;BME280;5911;51.036;6.972;2023-05-19T09:35:27;101529.50;;;16.69;58.39
11710;BME280;5911;51.036;6.972;2023-05-19T09:37:55;101521.50;;;16.59;55.54
11710;BME280;5911;51.036;6.972;2023-05-19T09:40:26;101523.47;;;16.67;58.78
11710;BME280;5911;51.036;6.972;2023-05-19T09:42:54;101521.09;;;16.64;56.85
11710;BME280;5911;51.036;6.972;2023-05-19T09:45:25;101516.72;;;16.53;56.48
11710;BME280;5911;51.036;6.972;2023-05-19T09:47:53;101529.50;;;16.69;53.41
11710;BME280;5911;51.036;6.972;2023-05-19T09:50:21;101532.16;;;16.78;55.58
11710;BME280;5911;51.036;6.972;2023-05-19T09:52:49;101522.34;;;16.79;54.90
11710;BME280;5911;51.036;6.972;2023-05-19T09:55:18;101512.53;;;16.79;54.68
11710;BME280;5911;51.036;6.972;2023-05-19T09:57:48;101518.09;;;16.96;55.76
11710;BME280;5911;51.036;6.972;2023-05-19T10:00:18;101517.50;;;17.02;54.65
11710;BME280;5911;51.036;6.972;2023-05-19T10:02:48;101520.88;;;17.04;52.71
11710;BME280;5911;51.036;6.972;2023-05-19T10:05:17;101513.28;;;16.99;51.70
11710;BME280;5911;51.036;6.972;2023-05-19T10:07:49;101511.00;;;17.14;54.46
11710;BME280;5911;51.036;6.972;2023-05-19T10:10:17;101509.94;;;17.34;55.40
11710;BME280;5911;51.036;6.972;2023-05-19T10:12:47;101508.41;;;17.32;52.61
11710;BME280;5911;51.036;6.972;2023-05-19T10:15:16;101513.72;;;17.41;53.96
11710;BME280;5911;51.036;6.972;2023-05-19T10:17:50;101509.75;;;17.45;52.46
11710;BME280;5911;51.036;6.972;2023-05-19T10:20:18;101506.44;;;17.61;54.14
11710;BME280;5911;51.036;6.972;2023-05-19T10:22:46;101503.00;;;17.78;55.91
11710;BME280;5911;51.036;6.972;2023-05-19T10:25:14;101498.09;;;18.01;53.58
11710;BME280;5911;51.036;6.972;2023-05-19T10:27:48;101499.78;;;18.02;51.31
11710;BME280;5911;51.036;6.972;2023-05-19T10:30:22;101497.47;;;18.07;51.24
11710;BME280;5911;51.036;6.972;2023-05-19T10:32:54;101484.88;;;18.17;51.35
11710;BME280;5911;51.036;6.972;2023-05-19T10:35:39;101499.81;;;18.46;50.59
11710;BME280;5911;51.036;6.972;2023-05-19T10:38:15;101489.97;;;18.90;51.21
11710;BME280;5911;51.036;6.972;2023-05-19T10:40:52;101492.84;;;19.22;51.04
11710;BME280;5911;51.036;6.972;2023-05-19T10:43:33;101487.91;;;19.10;49.70
11710;BME280;5911;51.036;6.972;2023-05-19T10:46:04;101495.66;;;19.21;49.75
11710;BME280;5911;51.036;6.972;2023-05-19T10:48:34;101502.94;;;19.71;48.12
11710;BME280;5911;51.036;6.972;2023-05-19T10:51:03;101501.50;;;20.09;46.92
11710;BME280;5911;51.036;6.972;2023-05-19T10:53:32;101498.63;;;19.94;45.49
11710;BME280;5911;51.036;6.972;2023-05-19T10:56:01;101505.72;;;20.27;44.63
11710;BME280;5911;51.036;6.972;2023-05-19T10:58:48;101496.84;;;20.76;45.69
11710;BME280;5911;51.036;6.972;2023-05-19T11:01:17;101494.28;;;20.98;44.48
11710;BME280;5911;51.036;6.972;2023-05-19T11:03:47;101494.38;;;21.37;43.37
11710;BME280;5911;51.036;6.972;2023-05-19T11:06:19;101490.09;;;21.51;42.17
11710;BME280;5911;51.036;6.972;2023-05-19T11:08:51;101489.63;;;21.70;39.39
11710;BME280;5911;51.036;6.972;2023-05-19T11:11:19;101493.25;;;21.86;39.66
11710;BME280;5911;51.036;6.972;2023-05-19T11:13:53;101491.50;;;22.01;40.84
11710;BME280;5911;51.036;6.972;2023-05-19T11:16:29;101487.81;;;22.25;39.94
11710;BME280;5911;51.036;6.972;2023-05-19T11:19:00;101494.75;;;22.42;39.22
11710;BME280;5911;51.036;6.972;2023-05-19T11:21:41;101500.53;;;22.68;38.96
11710;BME280;5911;51.036;6.972;2023-05-19T11:24:09;101486.25;;;23.05;40.53
11710;BME280;5911;51.036;6.972;2023-05-19T11:26:40;101485.47;;;22.44;40.95
11710;BME280;5911;51.036;6.972;2023-05-19T11:29:09;101465.44;;;21.79;43.01
11710;BME280;5911;51.036;6.972;2023-05-19T11:31:38;101478.78;;;21.33;42.59
11710;BME280;5911;51.036;6.972;2023-05-19T11:34:08;101473.31;;;21.02;44.18
11710;BME280;5911;51.036;6.972;2023-05-19T11:36:37;101470.50;;;20.87;43.95
11710;BME280;5911;51.036;6.972;2023-05-19T11:39:07;101468.13;;;21.48;42.93
11710;BME280;5911;51.036;6.972;2023-05-19T11:41:38;101475.88;;;22.27;42.66
11710;BME280;5911;51.036;6.972;2023-05-19T11:44:08;101473.09;;;22.73;43.25
11710;BME280;5911;51.036;6.972;2023-05-19T11:46:36;101477.78;;;23.08;40.69
11710;BME280;5911;51.036;6.972;2023-05-19T11:49:04;101473.41;;;23.37;40.66
11710;BME280;5911;51.036;6.972;2023-05-19T11:51:35;101477.06;;;23.80;40.65
11710;BME280;5911;51.036;6.972;2023-05-19T11:57:13;101470.19;;;23.77;38.47
11710;BME280;5911;51.036;6.972;2023-05-19T11:59:55;101467.81;;;23.53;40.94
11710;BME280;5911;51.036;6.972;2023-05-19T12:02:24;101462.84;;;23.21;40.14
11710;BME280;5911;51.036;6.972;2023-05-19T12:04:53;101464.44;;;23.80;39.55
11710;BME280;5911;51.036;6.972;2023-05-19T12:07:23;101456.44;;;24.15;39.15
11710;BME280;5911;51.036;6.972;2023-05-19T12:09:51;101470.22;;;24.41;37.04
11710;BME280;5911;51.036;6.972;2023-05-19T12:12:20;101456.97;;;24.74;38.76
11710;BME280;5911;51.036;6.972;2023-05-19T12:14:49;101459.28;;;25.05;37.49
11710;BME280;5911;51.036;6.972;2023-05-19T12:17:18;101460.03;;;25.34;36.58
11710;BME280;5911;51.036;6.972;2023-05-19T12:19:47;101452.81;;;25.47;36.23
11710;BME280;5911;51.036;6.972;2023-05-19T12:22:16;101445.78;;;25.59;35.99
11710;BME280;5911;51.036;6.972;2023-05-19T12:24:46;101451.97;;;25.06;35.69
11710;BME280;5911;51.036;6.972;2023-05-19T12:27:17;101449.88;;;25.36;35.77
11710;BME280;5911;51.036;6.972;2023-05-19T12:29:48;101439.47;;;25.39;36.85
11710;BME280;5911;51.036;6.972;2023-05-19T12:32:16;101434.59;;;25.69;36.57
11710;BME280;5911;51.036;6.972;2023-05-19T12:34:45;101437.38;;;25.96;37.23
11710;BME280;5911;51.036;6.972;2023-05-19T12:37:13;101437.19;;;24.95;35.78
11710;BME280;5911;51.036;6.972;2023-05-19T12:39:41;101437.66;;;25.59;34.94
11710;BME280;5911;51.036;6.972;2023-05-19T12:42:11;101434.22;;;25.99;34.51
11710;BME280;5911;51.036;6.972;2023-05-19T12:44:43;101436.75;;;26.20;34.26
11710;BME280;5911;51.036;6.972;2023-05-19T12:47:12;101437.19;;;26.43;34.88
11710;BME280;5911;51.036;6.972;2023-05-19T12:49:52;101431.38;;;26.40;32.53
11710;BME280;5911;51.036;6.972;2023-05-19T12:52:21;101423.69;;;26.37;34.35
11710;BME280;5911;51.036;6.972;2023-05-19T12:54:57;101427.16;;;26.63;34.05
11710;BME280;5911;51.036;6.972;2023-05-19T12:57:26;101438.00;;;26.63;33.23
11710;BME280;5911;51.036;6.972;2023-05-19T12:59:59;101433.16;;;26.99;32.59
11710;BME280;5911;51.036;6.972;2023-05-19T13:02:27;101413.56;;;27.03;33.10
11710;BME280;5911;51.036;6.972;2023-05-19T13:04:56;101426.16;;;26.25;34.43
11710;BME280;5911;51.036;6.972;2023-05-19T13:07:24;101419.66;;;25.86;34.75
11710;BME280;5911;51.036;6.972;2023-05-19T13:09:52;101402.00;;;25.16;34.33
11710;BME280;5911;51.036;6.972;2023-05-19T13:12:20;101413.69;;;25.37;33.91
11710;BME280;5911;51.036;6.972;2023-05-19T13:14:49;101412.84;;;26.10;34.89
11710;BME280;5911;51.036;6.972;2023-05-19T13:17:21;101423.47;;;26.38;33.86
11710;BME280;5911;51.036;6.972;2023-05-19T13:19:49;101427.56;;;26.80;33.37
11710;BME280;5911;51.036;6.972;2023-05-19T13:22:17;101414.41;;;27.04;33.17